createdAt,value
2019-02-25T00:00:18.384Z,38.45
2019-02-25T00:01:17.864Z,38.47
2019-02-25T00:02:19.238Z,38.46
2019-02-25T00:03:17.740Z,38.46
2019-02-25T00:04:17.969Z,38.47
2019-02-25T00:05:17.596Z,38.4
2019-02-25T00:06:17.333Z,38.48
2019-02-25T00:07:18.097Z,38.4
2019-02-25T00:08:18.056Z,38.46
2019-02-25T00:09:17.558Z,38.48
2019-02-25T00:10:17.461Z,38.44
2019-02-25T00:11:18.079Z,38.4
2019-02-25T00:12:17.443Z,38.45
2019-02-25T00:13:17.591Z,38.44
2019-02-25T00:14:18.078Z,38.41
2019-02-25T00:15:17.458Z,38.41
2019-02-25T00:16:17.615Z,38.46
2019-02-25T00:17:17.567Z,38.47
2019-02-25T00:18:17.797Z,38.42
2019-02-25T00:19:17.806Z,38.43
2019-02-25T00:20:17.601Z,38.47
2019-02-25T00:21:17.546Z,38.41
2019-02-25T00:22:17.604Z,38.46
2019-02-25T00:23:17.612Z,38.39
2019-02-25T00:24:19.151Z,38.41
2019-02-25T00:25:18.032Z,38.47
2019-02-25T00:26:17.217Z,38.41
2019-02-25T00:27:17.753Z,38.46
2019-02-25T00:28:17.398Z,38.46
2019-02-25T00:29:17.964Z,38.39
2019-02-25T00:30:17.990Z,38.45
2019-02-25T00:31:17.582Z,38.39
2019-02-25T00:32:18.888Z,38.42
2019-02-25T00:33:18.281Z,38.39
2019-02-25T00:34:17.777Z,38.45
2019-02-25T00:35:18.502Z,38.35
2019-02-25T00:36:17.779Z,38.45
2019-02-25T00:37:19.298Z,38.45
2019-02-25T00:38:17.528Z,38.4
2019-02-25T00:39:17.578Z,38.39
2019-02-25T00:40:17.627Z,38.44
2019-02-25T00:41:17.210Z,38.43
2019-02-25T00:42:17.448Z,38.42
2019-02-25T00:43:17.468Z,38.4
2019-02-25T00:44:17.454Z,38.37
2019-02-25T00:45:18.212Z,38.4
2019-02-25T00:46:17.454Z,38.43
2019-02-25T00:47:17.245Z,38.42
2019-02-25T00:48:17.400Z,38.41
2019-02-25T00:49:17.574Z,38.4
2019-02-25T00:50:17.594Z,38.42
2019-02-25T00:51:18.062Z,38.42
2019-02-25T00:52:17.399Z,38.46
2019-02-25T00:53:17.454Z,38.45
2019-02-25T00:54:17.324Z,38.45
2019-02-25T00:55:17.523Z,38.44
2019-02-25T00:56:17.368Z,38.45
2019-02-25T00:57:18.185Z,38.42
2019-02-25T00:58:17.573Z,38.46
2019-02-25T00:59:17.465Z,38.42
2019-02-25T01:00:17.474Z,38.39
2019-02-25T01:01:17.581Z,38.37
2019-02-25T01:02:17.414Z,38.4
2019-02-25T01:03:17.682Z,38.41
2019-02-25T01:04:17.275Z,38.39
2019-02-25T01:05:17.323Z,38.38
2019-02-25T01:06:17.170Z,38.33
2019-02-25T01:07:18.166Z,38.45
2019-02-25T01:08:17.462Z,38.45
2019-02-25T01:09:17.125Z,38.45
2019-02-25T01:10:17.674Z,38.38
2019-02-25T01:11:17.566Z,38.37
2019-02-25T01:12:17.877Z,38.39
2019-02-25T01:13:18.191Z,38.41
2019-02-25T01:14:17.228Z,38.42
2019-02-25T01:15:17.329Z,38.38
2019-02-25T01:16:17.617Z,38.41
2019-02-25T01:17:17.172Z,38.39
2019-02-25T01:18:17.304Z,38.34
2019-02-25T01:19:17.699Z,38.38
2019-02-25T01:20:17.656Z,38.42
2019-02-25T01:21:18.242Z,38.34
2019-02-25T01:22:17.829Z,38.39
2019-02-25T01:23:17.279Z,38.41
2019-02-25T01:24:17.715Z,38.37
2019-02-25T01:25:17.769Z,38.41
2019-02-25T01:26:17.796Z,38.34
2019-02-25T01:27:17.365Z,38.4
2019-02-25T01:28:17.486Z,38.39
2019-02-25T01:29:17.757Z,38.39
2019-02-25T01:30:17.596Z,38.39
2019-02-25T01:31:17.069Z,38.36
2019-02-25T01:32:17.588Z,38.4
2019-02-25T01:33:19.314Z,38.4
2019-02-25T01:34:18.702Z,38.43
2019-02-25T01:35:19.211Z,38.41
2019-02-25T01:36:17.276Z,38.41
2019-02-25T01:37:17.116Z,38.36
2019-02-25T01:38:17.319Z,38.39
2019-02-25T01:39:17.128Z,38.36
2019-02-25T01:40:17.552Z,38.33
2019-02-25T01:41:17.442Z,38.33
2019-02-25T01:42:18.372Z,38.39
2019-02-25T01:43:19.234Z,38.39
2019-02-25T01:44:17.038Z,38.36
2019-02-25T01:45:17.420Z,38.33
2019-02-25T01:46:17.114Z,38.33
2019-02-25T01:47:17.476Z,38.36
2019-02-25T01:48:17.441Z,38.38
2019-02-25T01:49:17.078Z,38.35
2019-02-25T01:50:17.436Z,38.37
2019-02-25T01:51:17.508Z,38.32
2019-02-25T01:52:17.220Z,38.37
2019-02-25T01:53:17.348Z,38.34
2019-02-25T01:54:17.371Z,38.35
2019-02-25T01:55:17.405Z,38.38
2019-02-25T01:56:18.534Z,38.38
2019-02-25T01:57:17.561Z,38.36
2019-02-25T01:58:17.246Z,38.37
2019-02-25T01:59:17.257Z,38.39
2019-02-25T02:00:17.815Z,38.34
2019-02-25T02:01:17.510Z,38.35
2019-02-25T02:02:17.515Z,38.35
2019-02-25T02:03:17.503Z,38.38
2019-02-25T02:04:17.616Z,38.4
2019-02-25T02:05:17.722Z,38.34
2019-02-25T02:06:17.454Z,38.31
2019-02-25T02:07:17.586Z,38.36
2019-02-25T02:08:17.877Z,38.34
2019-02-25T02:09:17.365Z,38.39
2019-02-25T02:10:17.488Z,38.39
2019-02-25T02:11:17.555Z,38.38
2019-02-25T02:12:17.388Z,38.35
2019-02-25T02:13:17.579Z,38.44
2019-02-25T02:14:17.159Z,38.36
2019-02-25T02:15:17.509Z,38.34
2019-02-25T02:16:17.554Z,38.39
2019-02-25T02:17:19.090Z,38.39
2019-02-25T02:18:18.211Z,38.36
2019-02-25T02:19:17.552Z,38.39
2019-02-25T02:20:17.439Z,38.35
2019-02-25T02:21:17.462Z,38.36
2019-02-25T02:22:17.646Z,38.36
2019-02-25T02:23:17.352Z,38.37
2019-02-25T02:24:19.212Z,38.33
2019-02-25T02:25:17.387Z,38.36
2019-02-25T02:26:17.398Z,38.37
2019-02-25T02:27:17.362Z,38.36
2019-02-25T02:28:17.250Z,38.37
2019-02-25T02:29:17.196Z,38.41
2019-02-25T02:30:17.657Z,38.29
2019-02-25T02:31:17.817Z,38.39
2019-02-25T02:32:17.442Z,38.32
2019-02-25T02:33:19.190Z,38.35
2019-02-25T02:34:17.369Z,38.37
2019-02-25T02:35:17.452Z,38.36
2019-02-25T02:36:17.375Z,38.32
2019-02-25T02:37:19.034Z,38.33
2019-02-25T02:38:17.224Z,38.34
2019-02-25T02:39:19.250Z,38.37
2019-02-25T02:40:17.737Z,38.41
2019-02-25T02:41:17.459Z,38.43
2019-02-25T02:42:17.593Z,38.41
2019-02-25T02:43:17.426Z,38.36
2019-02-25T02:44:17.645Z,38.36
2019-02-25T02:45:17.526Z,38.37
2019-02-25T02:46:17.340Z,38.41
2019-02-25T02:47:19.199Z,38.31
2019-02-25T02:48:17.282Z,38.39
2019-02-25T02:49:17.601Z,38.36
2019-02-25T02:50:17.891Z,38.34
2019-02-25T02:51:17.196Z,38.38
2019-02-25T02:52:17.225Z,38.38
2019-02-25T02:53:17.470Z,38.34
2019-02-25T02:54:17.832Z,38.32
2019-02-25T02:55:17.272Z,38.42
2019-02-25T02:56:17.318Z,38.39
2019-02-25T02:57:17.833Z,38.36
2019-02-25T02:58:17.184Z,38.34
2019-02-25T02:59:17.551Z,38.32
2019-02-25T03:00:17.383Z,38.39
2019-02-25T03:01:18.406Z,38.38
2019-02-25T03:02:18.134Z,38.4
2019-02-25T03:03:17.308Z,38.38
2019-02-25T03:04:17.849Z,38.39
2019-02-25T03:05:17.553Z,38.37
2019-02-25T03:06:19.132Z,38.34
2019-02-25T03:07:19.151Z,38.38
2019-02-25T03:08:17.186Z,38.39
2019-02-25T03:09:17.178Z,38.34
2019-02-25T03:10:17.589Z,38.36
2019-02-25T03:11:17.371Z,38.31
2019-02-25T03:12:17.477Z,38.37
2019-02-25T03:13:17.452Z,38.36
2019-02-25T03:14:17.502Z,38.39
2019-02-25T03:15:17.743Z,38.34
2019-02-25T03:16:17.248Z,38.36
2019-02-25T03:17:17.534Z,38.36
2019-02-25T03:18:17.309Z,38.34
2019-02-25T03:19:17.384Z,38.33
2019-02-25T03:20:17.478Z,38.34
2019-02-25T03:21:17.851Z,38.36
2019-02-25T03:22:17.681Z,38.36
2019-02-25T03:23:19.089Z,38.4
2019-02-25T03:24:17.992Z,38.34
2019-02-25T03:25:17.801Z,38.33
2019-02-25T03:26:17.199Z,38.3
2019-02-25T03:27:17.494Z,38.36
2019-02-25T03:28:17.589Z,38.29
2019-02-25T03:29:17.754Z,38.3
2019-02-25T03:30:17.405Z,38.34
2019-02-25T03:31:17.360Z,38.33
2019-02-25T03:32:17.859Z,38.3
2019-02-25T03:33:17.045Z,38.37
2019-02-25T03:34:17.419Z,38.39
2019-02-25T03:35:17.807Z,38.29
2019-02-25T03:36:17.391Z,38.41
2019-02-25T03:37:17.162Z,38.34
2019-02-25T03:38:18.511Z,38.28
2019-02-25T03:39:17.044Z,38.3
2019-02-25T03:40:17.636Z,38.29
2019-02-25T03:41:17.252Z,38.3
2019-02-25T03:42:17.423Z,38.34
2019-02-25T03:43:17.592Z,38.33
2019-02-25T03:44:17.423Z,38.33
2019-02-25T03:45:18.157Z,38.33
2019-02-25T03:46:17.389Z,38.34
2019-02-25T03:47:17.753Z,38.35
2019-02-25T03:48:17.120Z,38.33
2019-02-25T03:49:17.519Z,38.31
2019-02-25T03:50:17.573Z,38.34
2019-02-25T03:51:17.431Z,38.3
2019-02-25T03:52:17.471Z,38.36
2019-02-25T03:53:18.108Z,38.31
2019-02-25T03:54:17.646Z,38.32
2019-02-25T03:55:19.350Z,38.32
2019-02-25T03:56:17.273Z,38.32
2019-02-25T03:57:17.287Z,38.28
2019-02-25T03:58:17.381Z,38.36
2019-02-25T03:59:17.138Z,38.32
2019-02-25T04:00:17.535Z,38.36
2019-02-25T04:01:18.248Z,38.33
2019-02-25T04:02:17.331Z,38.37
2019-02-25T04:03:17.789Z,38.39
2019-02-25T04:04:17.567Z,38.27
2019-02-25T04:05:17.375Z,38.35
2019-02-25T04:06:18.379Z,38.37
2019-02-25T04:07:18.093Z,38.36
2019-02-25T04:08:17.551Z,38.33
2019-02-25T04:09:18.486Z,38.31
2019-02-25T04:10:17.644Z,38.27
2019-02-25T04:11:18.168Z,38.35
2019-02-25T04:12:17.531Z,38.31
2019-02-25T04:13:17.459Z,38.35
2019-02-25T04:14:19.096Z,38.33
2019-02-25T04:15:17.344Z,38.32
2019-02-25T04:16:17.295Z,38.28
2019-02-25T04:17:17.404Z,38.29
2019-02-25T04:18:17.569Z,38.33
2019-02-25T04:19:17.202Z,38.27
2019-02-25T04:20:17.398Z,38.29
2019-02-25T04:21:17.347Z,38.29
2019-02-25T04:22:17.184Z,38.36
2019-02-25T04:23:17.609Z,38.33
2019-02-25T04:24:17.662Z,38.35
2019-02-25T04:25:17.482Z,38.29
2019-02-25T04:26:17.521Z,38.34
2019-02-25T04:27:19.147Z,38.28
2019-02-25T04:28:18.053Z,38.29
2019-02-25T04:29:17.747Z,38.33
2019-02-25T04:30:17.787Z,38.34
2019-02-25T04:31:17.136Z,38.34
2019-02-25T04:32:17.969Z,38.31
2019-02-25T04:33:17.553Z,38.25
2019-02-25T04:34:19.134Z,38.29
2019-02-25T04:35:17.618Z,38.3
2019-02-25T04:36:17.244Z,38.31
2019-02-25T04:37:17.155Z,38.36
2019-02-25T04:38:17.247Z,38.26
2019-02-25T04:39:17.315Z,38.3
2019-02-25T04:40:17.117Z,38.34
2019-02-25T04:41:17.326Z,38.29
2019-02-25T04:42:17.846Z,38.3
2019-02-25T04:43:17.448Z,38.38
2019-02-25T04:44:17.433Z,38.41
2019-02-25T04:45:17.621Z,38.42
2019-02-25T04:46:17.789Z,38.42
2019-02-25T04:47:17.160Z,38.37
2019-02-25T04:48:17.220Z,38.4
2019-02-25T04:49:17.188Z,38.36
2019-02-25T04:50:17.268Z,38.4
2019-02-25T04:51:17.996Z,38.4
2019-02-25T04:52:18.297Z,38.37
2019-02-25T04:53:17.387Z,38.37
2019-02-25T04:54:17.605Z,38.53
2019-02-25T04:55:17.668Z,38.54
2019-02-25T04:56:17.139Z,38.65
2019-02-25T04:57:17.412Z,38.66
2019-02-25T04:58:17.573Z,38.67
2019-02-25T04:59:17.249Z,38.71
2019-02-25T05:00:18.547Z,38.78
2019-02-25T05:01:17.557Z,38.86
2019-02-25T05:02:17.486Z,38.83
2019-02-25T05:03:19.148Z,38.77
2019-02-25T05:04:17.605Z,38.65
2019-02-25T05:05:17.446Z,38.72
2019-02-25T05:06:17.915Z,38.63
2019-02-25T05:07:17.268Z,38.59
2019-02-25T05:08:17.234Z,38.61
2019-02-25T05:09:17.968Z,38.56
2019-02-25T05:10:17.202Z,38.55
2019-02-25T05:11:17.863Z,38.5
2019-02-25T05:12:18.255Z,38.54
2019-02-25T05:13:18.164Z,38.46
2019-02-25T05:14:17.426Z,38.51
2019-02-25T05:15:17.380Z,38.5
2019-02-25T05:16:17.657Z,38.49
2019-02-25T05:17:17.128Z,38.55
2019-02-25T05:18:18.215Z,38.48
2019-02-25T05:19:17.565Z,38.52
2019-02-25T05:20:17.548Z,38.5
2019-02-25T05:21:17.461Z,38.46
2019-02-25T05:22:17.488Z,38.46
2019-02-25T05:23:17.592Z,38.48
2019-02-25T05:24:17.341Z,38.52
2019-02-25T05:25:17.903Z,38.52
2019-02-25T05:26:17.554Z,38.51
2019-02-25T05:27:17.512Z,38.53
2019-02-25T05:28:17.622Z,38.56
2019-02-25T05:29:17.578Z,38.52
2019-02-25T05:30:17.434Z,38.54
2019-02-25T05:31:17.254Z,38.52
2019-02-25T05:32:17.896Z,38.56
2019-02-25T05:33:18.065Z,38.57
2019-02-25T05:34:18.529Z,38.51
2019-02-25T05:35:17.078Z,38.52
2019-02-25T05:36:19.114Z,38.51
2019-02-25T05:37:17.625Z,38.56
2019-02-25T05:38:17.304Z,38.57
2019-02-25T05:39:17.441Z,38.55
2019-02-25T05:40:17.576Z,38.58
2019-02-25T05:41:17.569Z,38.57
2019-02-25T05:42:17.794Z,38.59
2019-02-25T05:43:18.789Z,38.55
2019-02-25T05:44:17.107Z,38.56
2019-02-25T05:45:17.299Z,38.52
2019-02-25T05:46:17.410Z,38.51
2019-02-25T05:47:17.381Z,38.59
2019-02-25T05:48:17.166Z,38.55
2019-02-25T05:49:17.438Z,38.58
2019-02-25T05:50:17.537Z,38.61
2019-02-25T05:51:17.536Z,38.61
2019-02-25T05:52:17.640Z,38.53
2019-02-25T05:53:17.330Z,38.58
2019-02-25T05:54:17.624Z,38.58
2019-02-25T05:55:17.088Z,38.55
2019-02-25T05:56:17.729Z,38.57
2019-02-25T05:57:18.000Z,38.56
2019-02-25T05:58:17.054Z,38.53
2019-02-25T05:59:17.576Z,38.56
2019-02-25T06:00:17.543Z,38.53
2019-02-25T06:01:17.249Z,37.1
2019-02-25T06:02:17.389Z,34.4
2019-02-25T06:03:17.800Z,33.48
2019-02-25T06:04:17.414Z,32.72
2019-02-25T06:05:17.523Z,32
2019-02-25T06:06:17.186Z,31.48
2019-02-25T06:07:17.352Z,30.81
2019-02-25T06:08:17.153Z,30.5
2019-02-25T06:09:17.893Z,30.31
2019-02-25T06:10:17.187Z,29.7
2019-02-25T06:11:17.623Z,29.67
2019-02-25T06:12:17.905Z,29.19
2019-02-25T06:13:17.092Z,29.44
2019-02-25T06:14:18.208Z,30.43
2019-02-25T06:15:17.295Z,31.72
2019-02-25T06:16:17.458Z,32.08
2019-02-25T06:17:17.827Z,32.53
2019-02-25T06:18:18.951Z,32.79
2019-02-25T06:19:17.240Z,32.89
2019-02-25T06:20:17.533Z,33.46
2019-02-25T06:21:17.473Z,33.49
2019-02-25T06:22:17.141Z,33.48
2019-02-25T06:23:19.139Z,33.66
2019-02-25T06:24:17.173Z,33.73
2019-02-25T06:25:17.660Z,33.8
2019-02-25T06:26:17.370Z,34.04
2019-02-25T06:27:17.392Z,34.15
2019-02-25T06:28:17.321Z,34.26
2019-02-25T06:29:17.076Z,34.34
2019-02-25T06:30:17.505Z,34.43
2019-02-25T06:31:17.497Z,34.52
2019-02-25T06:32:17.605Z,34.56
2019-02-25T06:33:17.746Z,34.62
2019-02-25T06:34:17.372Z,34.66
2019-02-25T06:35:17.156Z,34.74
2019-02-25T06:36:19.069Z,34.81
2019-02-25T06:37:19.137Z,34.87
2019-02-25T06:38:17.261Z,34.96
2019-02-25T06:39:18.306Z,34.93
2019-02-25T06:40:19.059Z,35.02
2019-02-25T06:41:17.011Z,35.03
2019-02-25T06:42:17.223Z,35.07
2019-02-25T06:43:18.933Z,35.15
2019-02-25T06:44:17.453Z,35.19
2019-02-25T06:45:17.529Z,35.23
2019-02-25T06:46:17.125Z,35.27
2019-02-25T06:47:17.309Z,35.25
2019-02-25T06:48:18.745Z,35.34
2019-02-25T06:49:17.104Z,35.39
2019-02-25T06:50:17.230Z,35.42
2019-02-25T06:51:17.721Z,35.43
2019-02-25T06:52:17.388Z,35.47
2019-02-25T06:53:17.204Z,35.48
2019-02-25T06:54:17.855Z,35.5
2019-02-25T06:55:17.361Z,35.56
2019-02-25T06:56:17.394Z,35.59
2019-02-25T06:57:18.931Z,35.62
2019-02-25T06:58:17.235Z,35.67
2019-02-25T06:59:17.165Z,35.71
2019-02-25T07:00:17.268Z,35.67
2019-02-25T07:01:17.711Z,35.77
2019-02-25T07:02:17.291Z,35.73
2019-02-25T07:03:17.402Z,35.75
2019-02-25T07:04:17.145Z,35.81
2019-02-25T07:05:17.670Z,35.82
2019-02-25T07:06:17.530Z,35.83
2019-02-25T07:07:17.040Z,35.92
2019-02-25T07:08:17.464Z,35.89
2019-02-25T07:09:17.304Z,35.94
2019-02-25T07:10:17.245Z,35.98
2019-02-25T07:11:17.367Z,35.97
2019-02-25T07:12:17.408Z,36.05
2019-02-25T07:13:17.178Z,36.08
2019-02-25T07:14:17.389Z,36.11
2019-02-25T07:15:17.507Z,36.1
2019-02-25T07:16:17.307Z,36.19
2019-02-25T07:17:17.227Z,36.11
2019-02-25T07:18:17.278Z,36.17
2019-02-25T07:19:16.957Z,36.23
2019-02-25T07:20:17.043Z,36.26
2019-02-25T07:21:17.112Z,36.29
2019-02-25T07:22:17.757Z,36.33
2019-02-25T07:23:18.179Z,36.34
2019-02-25T07:24:17.067Z,36.34
2019-02-25T07:25:17.161Z,36.44
2019-02-25T07:26:17.474Z,36.42
2019-02-25T07:27:17.001Z,36.44
2019-02-25T07:28:17.142Z,36.5
2019-02-25T07:29:17.482Z,36.53
2019-02-25T07:30:17.508Z,36.59
2019-02-25T07:31:17.413Z,36.55
2019-02-25T07:32:17.617Z,36.61
2019-02-25T07:33:17.045Z,36.58
2019-02-25T07:34:17.542Z,36.66
2019-02-25T07:35:17.440Z,36.7
2019-02-25T07:36:18.061Z,36.62
2019-02-25T07:37:18.377Z,36.67
2019-02-25T07:38:17.455Z,36.7
2019-02-25T07:39:17.085Z,36.66
2019-02-25T07:40:17.520Z,36.67
2019-02-25T07:41:17.475Z,36.73
2019-02-25T07:42:17.165Z,36.69
2019-02-25T07:43:17.536Z,36.74
2019-02-25T07:44:18.008Z,36.74
2019-02-25T07:45:17.398Z,36.75
2019-02-25T07:46:17.723Z,36.81
2019-02-25T07:47:17.602Z,36.83
2019-02-25T07:48:17.240Z,36.82
2019-02-25T07:49:17.647Z,36.81
2019-02-25T07:50:17.553Z,36.81
2019-02-25T07:51:17.242Z,36.87
2019-02-25T07:52:17.343Z,36.85
2019-02-25T07:53:17.856Z,36.86
2019-02-25T07:54:17.498Z,36.89
2019-02-25T07:55:19.129Z,36.88
2019-02-25T07:56:17.427Z,36.85
2019-02-25T07:57:19.002Z,36.85
2019-02-25T07:58:17.495Z,36.86
2019-02-25T07:59:17.023Z,36.82
2019-02-25T08:00:17.279Z,36.86
2019-02-25T08:01:17.583Z,36.89
2019-02-25T08:02:17.417Z,36.9
2019-02-25T08:03:17.444Z,36.82
2019-02-25T08:04:17.472Z,36.73
2019-02-25T08:05:18.145Z,36.85
2019-02-25T08:06:18.965Z,36.82
2019-02-25T08:07:17.095Z,36.8
2019-02-25T08:08:17.583Z,36.69
2019-02-25T08:09:17.093Z,36.72
2019-02-25T08:10:17.215Z,36.77
2019-02-25T08:11:17.253Z,36.72
2019-02-25T08:12:17.403Z,36.69
2019-02-25T08:13:17.031Z,36.78
2019-02-25T08:14:17.474Z,36.69
2019-02-25T08:15:17.034Z,36.69
2019-02-25T08:16:16.948Z,36.71
2019-02-25T08:17:17.334Z,36.66
2019-02-25T08:18:17.750Z,36.76
2019-02-25T08:19:16.915Z,36.72
2019-02-25T08:20:17.675Z,36.69
2019-02-25T08:21:17.241Z,36.67
2019-02-25T08:22:18.846Z,36.7
2019-02-25T08:23:17.688Z,36.72
2019-02-25T08:24:17.421Z,36.74
2019-02-25T08:25:17.506Z,36.83
2019-02-25T08:26:17.496Z,36.77
2019-02-25T08:27:18.252Z,36.75
2019-02-25T08:28:17.672Z,36.8
2019-02-25T08:29:17.306Z,36.8
2019-02-25T08:30:17.654Z,36.74
2019-02-25T08:31:18.897Z,36.82
2019-02-25T08:32:17.238Z,36.87
2019-02-25T08:33:17.191Z,36.79
2019-02-25T08:34:19.666Z,36.84
2019-02-25T08:35:17.292Z,36.83
2019-02-25T08:36:16.995Z,36.82
2019-02-25T08:37:17.434Z,36.86
2019-02-25T08:38:17.364Z,36.83
2019-02-25T08:39:18.278Z,36.8
2019-02-25T08:40:17.140Z,36.8
2019-02-25T08:41:17.234Z,36.87
2019-02-25T08:42:17.187Z,36.81
2019-02-25T08:43:17.477Z,37
2019-02-25T08:44:17.588Z,37.13
2019-02-25T08:45:17.439Z,37.15
2019-02-25T08:46:17.317Z,37.26
2019-02-25T08:47:17.432Z,37.51
2019-02-25T08:48:17.381Z,37.51
2019-02-25T08:49:18.376Z,37.65
2019-02-25T08:50:17.984Z,37.73
2019-02-25T08:51:17.366Z,37.69
2019-02-25T08:52:17.288Z,37.81
2019-02-25T08:53:17.167Z,37.83
2019-02-25T08:54:17.607Z,37.91
2019-02-25T08:55:17.306Z,37.91
2019-02-25T08:56:17.474Z,37.92
2019-02-25T08:57:17.122Z,37.93
2019-02-25T08:58:18.505Z,37.87
2019-02-25T08:59:17.297Z,37.95
2019-02-25T09:00:16.974Z,37.91
2019-02-25T09:01:17.255Z,37.89
2019-02-25T09:02:17.353Z,37.87
2019-02-25T09:03:17.050Z,37.85
2019-02-25T09:04:17.303Z,37.88
2019-02-25T09:05:17.512Z,37.96
2019-02-25T09:06:17.275Z,37.95
2019-02-25T09:07:17.028Z,37.9
2019-02-25T09:08:18.027Z,37.9
2019-02-25T09:09:17.460Z,38.01
2019-02-25T09:10:17.567Z,37.96
2019-02-25T09:11:17.040Z,37.97
2019-02-25T09:12:18.458Z,37.96
2019-02-25T09:13:17.276Z,38.01
2019-02-25T09:14:17.088Z,37.95
2019-02-25T09:15:17.551Z,37.53
2019-02-25T09:16:17.323Z,37.69
2019-02-25T09:17:17.380Z,37.71
2019-02-25T09:18:17.017Z,37.76
2019-02-25T09:19:17.171Z,37.75
2019-02-25T09:20:17.175Z,37.68
2019-02-25T09:21:17.113Z,37.77
2019-02-25T09:22:17.152Z,37.78
2019-02-25T09:23:17.616Z,37.73
2019-02-25T09:24:19.087Z,37.78
2019-02-25T09:25:17.008Z,37.73
2019-02-25T09:26:17.531Z,37.8
2019-02-25T09:27:18.028Z,37.79
2019-02-25T09:28:17.231Z,37.67
2019-02-25T09:29:17.462Z,37.81
2019-02-25T09:30:17.280Z,37.81
2019-02-25T09:31:17.138Z,37.8
2019-02-25T09:32:19.478Z,37.78
2019-02-25T09:33:18.331Z,37.88
2019-02-25T09:34:17.375Z,38.18
2019-02-25T09:35:19.105Z,38.16
2019-02-25T09:36:17.530Z,38.14
2019-02-25T09:37:17.474Z,38.1
2019-02-25T09:38:17.387Z,38.16
2019-02-25T09:39:17.209Z,38.16
2019-02-25T09:40:17.186Z,38.19
2019-02-25T09:41:17.614Z,38.28
2019-02-25T09:42:17.126Z,37.94
2019-02-25T09:43:17.367Z,38.21
2019-02-25T09:44:17.992Z,38.03
2019-02-25T09:45:17.082Z,37.95
2019-02-25T09:46:17.254Z,38.19
2019-02-25T09:47:17.891Z,38.15
2019-02-25T09:48:18.966Z,37.98
2019-02-25T09:49:17.203Z,38.01
2019-02-25T09:50:17.075Z,37.97
2019-02-25T09:51:17.193Z,38.13
2019-02-25T09:52:17.024Z,38.14
2019-02-25T09:53:17.192Z,38.69
2019-02-25T09:54:18.064Z,37.85
2019-02-25T09:55:17.106Z,37.9
2019-02-25T09:56:17.109Z,37.95
2019-02-25T09:57:17.029Z,38.04
2019-02-25T09:58:17.011Z,38.52
2019-02-25T09:59:17.456Z,38.28
2019-02-25T10:00:17.375Z,37.92
2019-02-25T10:01:17.009Z,38.12
2019-02-25T10:02:17.384Z,38.28
2019-02-25T10:03:17.053Z,38.31
2019-02-25T10:04:17.142Z,38.33
2019-02-25T10:05:17.238Z,38.21
2019-02-25T10:06:17.196Z,38.3
2019-02-25T10:07:17.413Z,38.32
2019-02-25T10:08:17.661Z,38.27
2019-02-25T10:09:17.190Z,38.35
2019-02-25T10:10:17.322Z,38.23
2019-02-25T10:11:17.631Z,38.22
2019-02-25T10:12:17.054Z,38.28
2019-02-25T10:13:17.133Z,38.29
2019-02-25T10:14:16.897Z,38.17
2019-02-25T10:15:18.413Z,38.16
2019-02-25T10:16:18.980Z,38.16
2019-02-25T10:17:24.398Z,38.11
2019-02-25T10:18:17.186Z,38.19
2019-02-25T10:19:17.405Z,38.16
2019-02-25T10:20:17.568Z,38.07
2019-02-25T10:21:17.184Z,38.12
2019-02-25T10:22:17.319Z,38.3
2019-02-25T10:23:17.010Z,38.25
2019-02-25T10:24:17.078Z,38.35
2019-02-25T10:25:17.301Z,38.48
2019-02-25T10:26:16.984Z,38.44
2019-02-25T10:27:17.480Z,38.4
2019-02-25T10:28:17.792Z,38.36
2019-02-25T10:29:17.085Z,38.3
2019-02-25T10:30:17.100Z,38.31
2019-02-25T10:31:17.794Z,38.38
2019-02-25T10:32:17.188Z,38.36
2019-02-25T10:33:17.066Z,38.33
2019-02-25T10:34:18.340Z,38.3
2019-02-25T10:35:18.081Z,38.25
2019-02-25T10:36:17.434Z,38.21
2019-02-25T10:37:17.941Z,38.3
2019-02-25T10:38:21.814Z,38.37
2019-02-25T10:39:20.093Z,38.42
2019-02-25T10:40:27.906Z,38.25
2019-02-25T10:41:28.019Z,38.35
2019-02-25T10:42:17.129Z,38.36
2019-02-25T10:43:17.205Z,38.49
2019-02-25T10:44:17.059Z,38.38
2019-02-25T10:45:17.251Z,38.29
2019-02-25T10:46:18.080Z,38.26
2019-02-25T10:47:21.610Z,38.26
2019-02-25T10:48:26.131Z,38.27
2019-02-25T10:49:17.164Z,38.27
2019-02-25T10:50:17.287Z,38.34
2019-02-25T10:51:17.495Z,38.23
2019-02-25T10:52:17.744Z,38.19
2019-02-25T10:53:22.307Z,38.19
2019-02-25T10:54:25.652Z,38.26
2019-02-25T10:55:17.000Z,38.22
2019-02-25T10:56:26.195Z,38.09
2019-02-25T10:57:17.041Z,38.17
2019-02-25T10:58:17.374Z,38.21
2019-02-25T10:59:18.002Z,38.16
2019-02-25T11:00:17.060Z,38.31
2019-02-25T11:01:24.906Z,38.33
2019-02-25T11:02:19.753Z,38.25
2019-02-25T11:03:22.151Z,38.29
2019-02-25T11:04:26.550Z,38.3
2019-02-25T11:05:30.863Z,38.35
2019-02-25T11:06:17.002Z,38.3
2019-02-25T11:07:17.054Z,38.3
2019-02-25T11:08:17.515Z,38.39
2019-02-25T11:09:18.370Z,38.38
2019-02-25T11:10:22.726Z,38.42
2019-02-25T11:11:27.427Z,38.4
2019-02-25T11:12:17.471Z,38.35
2019-02-25T11:13:17.245Z,38.46
2019-02-25T11:14:17.109Z,38.37
2019-02-25T11:15:17.370Z,38.29
2019-02-25T11:16:20.752Z,38.4
2019-02-25T11:17:24.748Z,38.44
2019-02-25T11:18:28.589Z,38.34
2019-02-25T11:19:16.859Z,38.34
2019-02-25T11:20:17.780Z,38.31
2019-02-25T11:21:17.039Z,38.31
2019-02-25T11:22:17.248Z,38.31
2019-02-25T11:23:21.860Z,38.25
2019-02-25T11:24:25.681Z,38.3
2019-02-25T11:25:30.360Z,38.25
2019-02-25T11:26:16.975Z,38.23
2019-02-25T11:27:18.923Z,38.31
2019-02-25T11:28:26.335Z,37.9
2019-02-25T11:29:17.333Z,38.01
2019-02-25T11:30:24.309Z,37.62
2019-02-25T11:31:29.413Z,37.83
2019-02-25T11:32:28.077Z,37.8
2019-02-25T11:33:17.067Z,37.84
2019-02-25T11:34:17.446Z,37.9
2019-02-25T11:35:17.153Z,37.93
2019-02-25T11:36:22.317Z,37.9
2019-02-25T11:37:27.242Z,37.93
2019-02-25T11:38:17.174Z,37.96
2019-02-25T11:39:17.297Z,37.95
2019-02-25T11:40:18.267Z,37.97
2019-02-25T11:41:17.183Z,38.04
2019-02-25T11:42:20.974Z,37.94
2019-02-25T11:43:21.869Z,37.78
2019-02-25T11:44:31.523Z,37.75
2019-02-25T11:45:18.895Z,37.75
2019-02-25T11:46:17.467Z,38.12
2019-02-25T11:47:17.099Z,38.1
2019-02-25T11:48:18.933Z,38
2019-02-25T11:49:17.427Z,38.14
2019-02-25T11:50:17.832Z,38.01
2019-02-25T11:51:17.289Z,38.12
2019-02-25T11:52:17.616Z,38.11
2019-02-25T11:53:17.028Z,37.86
2019-02-25T11:54:17.188Z,37.95
2019-02-25T11:55:17.401Z,38.03
2019-02-25T11:56:17.067Z,38.08
2019-02-25T11:57:18.040Z,37.97
2019-02-25T11:58:17.381Z,37.96
2019-02-25T11:59:17.462Z,37.88
2019-02-25T12:00:17.297Z,38.05
2019-02-25T12:01:17.158Z,38
2019-02-25T12:02:26.408Z,38.15
2019-02-25T12:03:17.665Z,37.96
2019-02-25T12:04:17.388Z,38
2019-02-25T12:05:17.077Z,37.99
2019-02-25T12:06:17.531Z,37.87
2019-02-25T12:07:17.536Z,38.01
2019-02-25T12:08:17.175Z,37.92
2019-02-25T12:09:18.900Z,38.02
2019-02-25T12:10:17.250Z,37.92
2019-02-25T12:11:17.219Z,38.06
2019-02-25T12:12:17.089Z,37.96
2019-02-25T12:13:17.620Z,37.79
2019-02-25T12:14:17.977Z,38.13
2019-02-25T12:15:18.844Z,37.81
2019-02-25T12:16:17.304Z,37.82
2019-02-25T12:17:17.301Z,37.86
2019-02-25T12:18:17.243Z,37.81
2019-02-25T12:19:18.586Z,37.98
2019-02-25T12:20:17.237Z,38.04
2019-02-25T12:21:17.008Z,37.91
2019-02-25T12:22:17.364Z,37.98
2019-02-25T12:23:17.584Z,37.89
2019-02-25T12:24:17.168Z,37.98
2019-02-25T12:25:18.038Z,38
2019-02-25T12:26:16.857Z,38.15
2019-02-25T12:27:17.285Z,38.18
2019-02-25T12:28:17.224Z,38.19
2019-02-25T12:29:17.185Z,38.27
2019-02-25T12:30:17.271Z,38.07
2019-02-25T12:31:17.608Z,38.01
2019-02-25T12:32:17.428Z,38.11
2019-02-25T12:33:17.103Z,38.13
2019-02-25T12:34:17.315Z,37.8
2019-02-25T12:35:16.969Z,37.83
2019-02-25T12:36:16.910Z,37.83
2019-02-25T12:37:17.104Z,37.96
2019-02-25T12:38:17.784Z,38.01
2019-02-25T12:39:17.459Z,38.08
2019-02-25T12:40:17.227Z,38.08
2019-02-25T12:41:16.975Z,38.09
2019-02-25T12:42:17.229Z,38.12
2019-02-25T12:43:16.939Z,38.36
2019-02-25T12:44:18.905Z,38.44
2019-02-25T12:45:16.946Z,38.42
2019-02-25T12:46:17.875Z,38.29
2019-02-25T12:47:18.050Z,38.21
2019-02-25T12:48:17.368Z,38.33
2019-02-25T12:49:17.965Z,38.24
2019-02-25T12:50:17.253Z,38.07
2019-02-25T12:51:17.240Z,38.07
2019-02-25T12:52:17.078Z,38.1
2019-02-25T12:53:17.273Z,38.24
2019-02-25T12:54:17.494Z,38.09
2019-02-25T12:55:17.205Z,38.11